createdAt,value
2022-11-15T00:02:59.945Z,101060.53
2022-11-15T00:08:23.787Z,101051.66
2022-11-15T00:13:47.261Z,101056.12
2022-11-15T00:19:11.261Z,101051.27
2022-11-15T00:24:34.537Z,101043.27
2022-11-15T00:29:58.152Z,101052.97
2022-11-15T00:35:22.483Z,101039.10
2022-11-15T00:40:46.069Z,101033.56
2022-11-15T00:46:10.710Z,101027.47
2022-11-15T00:51:34.188Z,101030.80
2022-11-15T00:56:57.739Z,101022.47
2022-11-15T01:02:20.935Z,101018.97
2022-11-15T01:07:44.503Z,101011.03
2022-11-15T01:13:07.905Z,101004.90
2022-11-15T01:18:31.504Z,101007.92
2022-11-15T01:23:59.058Z,100997.84
2022-11-15T01:29:22.912Z,100995.64
2022-11-15T01:34:46.394Z,100984.03
2022-11-15T01:40:10.904Z,100980.31
2022-11-15T01:45:34.380Z,100961.42
2022-11-15T01:50:58.626Z,100965.55
2022-11-15T01:56:27.891Z,100960.44
2022-11-15T02:01:52.328Z,100953.23
2022-11-15T02:07:18.942Z,100945.89
2022-11-15T02:12:43.754Z,100938.61
2022-11-15T02:18:25.298Z,100940.02
2022-11-15T02:23:51.993Z,100937.89
2022-11-15T02:29:24.292Z,100923.43
2022-11-15T02:34:56.475Z,100930.09
2022-11-15T02:40:31.657Z,100926.82
2022-11-15T02:45:58.101Z,100933.38
2022-11-15T02:51:22.621Z,100927.15
2022-11-15T02:56:47.833Z,100922.34
2022-11-15T03:02:32.791Z,100911.21
2022-11-15T03:08:02.842Z,100913.95
2022-11-15T03:13:44.714Z,100903.75
2022-11-15T03:19:23.238Z,100914.89
2022-11-15T03:24:49.547Z,100912.22
2022-11-15T03:30:14.994Z,100903.20
2022-11-15T03:35:41.611Z,100877.29
2022-11-15T03:41:08.130Z,100884.97
2022-11-15T03:46:43.194Z,100887.48
2022-11-15T03:52:07.826Z,100890.77
2022-11-15T03:57:31.311Z,100898.16
2022-11-15T04:02:54.860Z,100890.70
2022-11-15T04:08:18.422Z,100884.82
2022-11-15T04:13:41.915Z,100887.16
2022-11-15T04:19:23.132Z,100885.44
2022-11-15T04:24:46.438Z,100887.56
2022-11-15T04:30:11.075Z,100887.30
2022-11-15T04:35:34.805Z,100879.16
2022-11-15T04:40:58.169Z,100881.69
2022-11-15T04:46:21.697Z,100882.55
2022-11-15T04:51:45.736Z,100873.90
2022-11-15T04:57:09.552Z,100875.13
2022-11-15T05:02:35.505Z,100875.11
2022-11-15T05:07:59.087Z,100868.66
2022-11-15T05:13:22.533Z,100869.31
2022-11-15T05:18:45.876Z,100864.91
2022-11-15T05:24:10.977Z,100858.91
2022-11-15T05:29:34.497Z,100860.63
2022-11-15T05:34:58.125Z,100860.19
2022-11-15T05:40:21.838Z,100856.05
2022-11-15T05:45:45.322Z,100853.71
2022-11-15T05:51:09.795Z,100858.80
2022-11-15T05:56:34.265Z,100858.50
2022-11-15T06:01:57.941Z,100864.63
2022-11-15T06:07:21.848Z,100858.11
2022-11-15T06:12:45.535Z,100861.72
2022-11-15T06:18:08.958Z,100863.09
2022-11-15T06:23:37.144Z,100867.77
2022-11-15T06:29:00.842Z,100863.38
2022-11-15T06:34:24.843Z,100859.40
2022-11-15T06:39:48.022Z,100867.84
2022-11-15T06:45:11.665Z,100871.30
2022-11-15T06:50:35.016Z,100865.56
2022-11-15T06:56:02.979Z,100874.72
2022-11-15T07:01:26.458Z,100875.72
2022-11-15T07:06:50.410Z,100877.78
2022-11-15T07:12:13.756Z,100869.97
2022-11-15T07:17:37.430Z,100874.31
2022-11-15T07:23:05.299Z,100876.05
2022-11-15T07:28:29.509Z,100882.11
2022-11-15T07:33:52.801Z,100896.85
2022-11-15T07:39:16.160Z,100889.50
2022-11-15T07:44:39.649Z,100887.09
2022-11-15T07:50:03.303Z,100894.58
2022-11-15T07:55:30.249Z,100900.50
2022-11-15T08:00:53.594Z,100904.58
2022-11-15T08:06:16.737Z,100904.55
2022-11-15T08:11:40.360Z,100905.41
2022-11-15T08:17:03.603Z,100902.67
2022-11-15T08:22:27.096Z,100904.19
2022-11-15T08:27:51.805Z,100896.42
2022-11-15T08:33:16.917Z,100901.37
2022-11-15T08:38:40.129Z,100894.22
2022-11-15T08:44:03.424Z,100892.74
2022-11-15T08:49:26.732Z,100894.89
2022-11-15T08:54:50.538Z,100892.60
2022-11-15T09:00:15.754Z,100887.03
2022-11-15T09:05:39.104Z,100892.07
2022-11-15T09:11:07.716Z,100891.58
2022-11-15T09:16:33.262Z,100878.08
2022-11-15T09:21:56.796Z,100874.30
2022-11-15T09:27:20.255Z,100869.36
2022-11-15T09:32:43.456Z,100864.88
2022-11-15T09:38:07.725Z,100874.23
2022-11-15T09:43:53.916Z,100878.00
2022-11-15T09:49:19.585Z,100872.62
2022-11-15T09:54:56.720Z,100878.75
2022-11-15T10:00:12.420Z,100870.41
2022-11-15T10:05:12.229Z,100866.52
2022-11-15T10:10:32.801Z,100877.04
2022-11-15T10:15:38.271Z,100876.36
2022-11-15T10:20:56.738Z,100858.11
2022-11-15T10:26:06.831Z,100855.22
2022-11-15T10:31:28.683Z,100857.64
2022-11-15T10:36:34.763Z,100849.50
2022-11-15T10:41:43.014Z,100849.57
2022-11-15T10:46:51.628Z,100837.14
2022-11-15T10:52:03.000Z,100835.30
2022-11-15T10:57:20.536Z,100831.03
2022-11-15T11:02:38.299Z,100830.47
2022-11-15T11:07:45.244Z,100840.05
2022-11-15T11:12:50.740Z,100828.01
2022-11-15T11:18:17.178Z,100820.45
2022-11-15T11:23:28.891Z,100817.95
2022-11-15T11:28:40.264Z,100808.37
2022-11-15T11:34:03.978Z,100802.19
2022-11-15T11:39:38.018Z,100797.31
2022-11-15T11:44:55.130Z,100795.20
2022-11-15T11:50:03.604Z,100794.62
2022-11-15T11:55:18.106Z,100799.04
2022-11-15T12:00:28.073Z,100799.14
2022-11-15T12:05:39.240Z,100792.13
2022-11-15T12:10:47.757Z,100784.98
2022-11-15T12:16:10.442Z,100781.75
2022-11-15T12:21:41.123Z,100776.43
2022-11-15T12:26:52.509Z,100770.30
2022-11-15T12:32:01.124Z,100768.63
2022-11-15T12:37:26.013Z,100770.23
2022-11-15T12:42:34.469Z,100774.37
2022-11-15T12:47:40.032Z,100766.29
2022-11-15T12:53:21.849Z,100764.42
2022-11-15T12:58:32.788Z,100773.05
2022-11-15T13:03:42.368Z,100767.00
2022-11-15T13:08:50.697Z,100769.27
2022-11-15T13:13:56.330Z,100765.99
2022-11-15T13:19:03.707Z,100766.30
2022-11-15T13:24:14.919Z,100761.59
2022-11-15T13:29:22.065Z,100751.61
2022-11-15T13:39:39.268Z,100747.50
2022-11-15T13:44:59.584Z,100743.73
2022-11-15T13:50:12.132Z,100732.06
2022-11-15T13:55:17.425Z,100715.37
2022-11-15T14:00:38.010Z,100724.22
2022-11-15T14:05:43.780Z,100726.27
2022-11-15T14:10:49.356Z,100727.15
2022-11-15T14:15:54.888Z,100726.78
2022-11-15T14:21:10.673Z,100730.47
2022-11-15T14:26:34.241Z,100731.64
2022-11-15T14:31:43.916Z,100736.02
2022-11-15T14:36:48.645Z,100736.18
2022-11-15T14:41:54.217Z,100733.11
2022-11-15T14:46:59.623Z,100730.67
2022-11-15T14:52:06.712Z,100727.63
2022-11-15T14:57:12.182Z,100721.52
2022-11-15T15:02:21.113Z,100719.40
2022-11-15T15:07:26.628Z,100718.60
2022-11-15T15:12:32.194Z,100707.00
2022-11-15T15:17:37.624Z,100710.77
2022-11-15T15:22:43.781Z,100710.77
2022-11-15T15:27:49.451Z,100708.89
2022-11-15T15:32:55.318Z,100715.23
2022-11-15T15:38:01.463Z,100716.34
2022-11-15T15:43:08.496Z,100705.04
2022-11-15T15:48:18.641Z,100706.28
2022-11-15T15:53:24.057Z,100703.02
2022-11-15T15:58:29.846Z,100704.50
2022-11-15T16:03:35.538Z,100707.70
2022-11-15T16:09:00.551Z,100697.89
2022-11-15T16:13:48.045Z,100694.69
2022-11-15T16:18:54.714Z,100696.16
2022-11-15T16:24:00.883Z,100704.63
2022-11-15T16:29:08.068Z,100703.14
2022-11-15T16:34:13.544Z,100709.73
2022-11-15T16:39:19.613Z,100712.94
2022-11-15T16:44:25.817Z,100701.56
2022-11-15T16:49:31.235Z,100701.02
2022-11-15T16:54:36.628Z,100692.88
2022-11-15T16:59:42.050Z,100684.89
2022-11-15T17:04:48.479Z,100685.50
2022-11-15T17:09:53.875Z,100677.34
2022-11-15T17:14:59.289Z,100672.36
2022-11-15T17:20:09.618Z,100664.28
2022-11-15T17:25:15.754Z,100657.83
2022-11-15T17:30:21.292Z,100658.63
2022-11-15T17:35:26.687Z,100669.37
2022-11-15T17:40:32.078Z,100661.98
2022-11-15T17:45:40.583Z,100661.28
2022-11-15T17:50:47.524Z,100660.66
2022-11-15T17:55:54.025Z,100646.38
2022-11-15T18:01:17.282Z,100639.98
2022-11-15T18:06:24.405Z,100654.47
2022-11-15T18:11:33.091Z,100648.20
2022-11-15T18:16:40.413Z,100644.02
2022-11-15T18:22:03.836Z,100653.91
2022-11-15T18:27:09.487Z,100650.38
2022-11-15T18:32:16.761Z,100650.06
2022-11-15T18:37:22.152Z,100649.84
2022-11-15T18:42:27.545Z,100636.58
2022-11-15T18:47:32.960Z,100637.85
2022-11-15T18:52:38.366Z,100631.55
2022-11-15T18:57:43.843Z,100621.22
2022-11-15T19:02:49.245Z,100622.11
2022-11-15T19:07:54.640Z,100621.94
2022-11-15T19:13:00.082Z,100618.86
2022-11-15T19:18:05.639Z,100627.34
2022-11-15T19:23:11.083Z,100632.64
2022-11-15T19:28:16.497Z,100631.88
2022-11-15T19:33:27.567Z,100628.42
2022-11-15T19:38:32.084Z,100627.95
2022-11-15T19:43:37.500Z,100623.19
2022-11-15T19:48:44.226Z,100620.98
2022-11-15T19:53:51.374Z,100619.59
2022-11-15T19:58:57.896Z,100628.91
2022-11-15T20:04:03.309Z,100629.85
2022-11-15T20:09:10.969Z,100622.86
2022-11-15T20:14:16.383Z,100630.15
2022-11-15T20:19:23.532Z,100624.75
2022-11-15T20:24:29.071Z,100614.55
2022-11-15T20:29:34.553Z,100613.61
2022-11-15T20:34:40.349Z,100603.89
2022-11-15T20:39:45.765Z,100616.66
2022-11-15T20:44:51.261Z,100618.86
2022-11-15T20:50:02.714Z,100604.92
2022-11-15T20:55:03.875Z,100605.08
2022-11-15T21:00:10.338Z,100605.00
2022-11-15T21:05:15.768Z,100606.37
2022-11-15T21:10:39.293Z,100599.33
2022-11-15T21:15:45.000Z,100593.23
2022-11-15T21:20:50.768Z,100594.27
2022-11-15T21:25:56.172Z,100601.78
2022-11-15T21:31:02.329Z,100594.73
2022-11-15T21:36:08.651Z,100596.16
2022-11-15T21:41:14.052Z,100590.27
2022-11-15T21:46:19.887Z,100600.67
2022-11-15T21:51:26.243Z,100607.73
2022-11-15T21:56:32.550Z,100619.72
2022-11-15T22:01:55.867Z,100601.59
2022-11-15T22:07:01.460Z,100598.70
2022-11-15T22:12:07.649Z,100587.44
2022-11-15T22:17:13.325Z,100583.20
2022-11-15T22:22:18.743Z,100589.06
2022-11-15T22:27:24.287Z,100579.37
2022-11-15T22:32:29.732Z,100571.93
2022-11-15T22:37:35.167Z,100578.52
2022-11-15T22:42:40.652Z,100578.50
2022-11-15T22:47:46.079Z,100573.42
2022-11-15T22:52:51.941Z,100567.70
2022-11-15T22:57:57.879Z,100559.94
2022-11-15T23:03:03.871Z,100551.80
2022-11-15T23:08:09.360Z,100545.91
2022-11-15T23:13:18.567Z,100544.12
2022-11-15T23:18:24.672Z,100550.00
2022-11-15T23:23:30.171Z,100551.94
2022-11-15T23:28:36.655Z,100551.33
2022-11-15T23:34:00.408Z,100543.78
2022-11-15T23:39:05.918Z,100533.45
2022-11-15T23:44:13.097Z,100537.28
2022-11-15T23:49:18.513Z,100533.23
2022-11-15T23:54:23.940Z,100526.33
2022-11-15T23:59:29.375Z,100525.02
